createdAt,value
2023-10-23T00:02:07.135Z,4.70
2023-10-23T00:05:10.036Z,5.10
2023-10-23T00:08:12.938Z,4.70
2023-10-23T00:11:25.966Z,4.18
2023-10-23T00:14:28.908Z,4.30
2023-10-23T00:17:31.784Z,4.13
2023-10-23T00:20:34.435Z,4.00
2023-10-23T00:23:37.226Z,4.60
2023-10-23T00:26:39.884Z,3.90
2023-10-23T00:29:42.616Z,4.00
2023-10-23T00:32:46.062Z,3.85
2023-10-23T00:35:49.456Z,3.83
2023-10-23T00:38:52.184Z,3.80
2023-10-23T00:41:54.927Z,4.20
2023-10-23T00:44:57.564Z,4.43
2023-10-23T00:48:00.359Z,4.10
2023-10-23T00:51:04.514Z,4.23
2023-10-23T00:54:07.830Z,4.20
2023-10-23T00:57:10.657Z,3.80
2023-10-23T01:00:14.866Z,3.63
2023-10-23T01:03:18.162Z,3.95
2023-10-23T01:06:21.756Z,3.53
2023-10-23T01:09:24.615Z,3.55
2023-10-23T01:12:27.314Z,3.90
2023-10-23T01:15:30.093Z,3.08
2023-10-23T01:18:32.899Z,3.40
2023-10-23T01:21:35.563Z,3.67
2023-10-23T01:24:42.723Z,3.30
2023-10-23T01:27:45.370Z,3.05
2023-10-23T01:30:48.780Z,3.40
2023-10-23T01:33:53.174Z,3.47
2023-10-23T01:36:56.063Z,3.83
2023-10-23T01:39:58.786Z,3.90
2023-10-23T01:43:01.528Z,4.10
2023-10-23T01:46:04.287Z,3.50
2023-10-23T01:49:06.953Z,3.75
2023-10-23T01:52:09.750Z,3.90
2023-10-23T01:55:12.486Z,4.70
2023-10-23T01:58:15.116Z,5.30
2023-10-23T02:01:25.910Z,4.55
2023-10-23T02:04:29.874Z,4.78
2023-10-23T02:07:32.686Z,3.50
2023-10-23T02:10:35.301Z,4.47
2023-10-23T02:13:38.430Z,4.07
2023-10-23T02:16:41.187Z,4.28
2023-10-23T02:19:44.060Z,4.60
2023-10-23T02:22:46.694Z,4.17
2023-10-23T02:25:49.355Z,4.28
2023-10-23T02:28:52.448Z,4.47
2023-10-23T02:31:55.280Z,4.32
2023-10-23T02:34:58.096Z,4.10
2023-10-23T02:38:00.910Z,4.30
2023-10-23T02:41:03.590Z,4.47
2023-10-23T02:44:06.908Z,4.70
2023-10-23T02:47:09.574Z,4.38
2023-10-23T02:50:12.372Z,4.60
2023-10-23T02:53:15.146Z,4.77
2023-10-23T02:56:17.733Z,4.13
2023-10-23T02:59:22.173Z,4.95
2023-10-23T03:02:25.019Z,5.75
2023-10-23T03:05:27.762Z,4.78
2023-10-23T03:08:30.430Z,5.83
2023-10-23T03:11:33.247Z,6.50
2023-10-23T03:14:35.931Z,11.57
2023-10-23T03:17:38.702Z,9.23
2023-10-23T03:20:42.060Z,8.13
2023-10-23T03:23:44.887Z,6.30
2023-10-23T03:26:47.566Z,5.30
2023-10-23T03:29:50.237Z,4.60
2023-10-23T03:32:53.057Z,4.80
2023-10-23T03:35:56.556Z,4.60
2023-10-23T03:38:59.184Z,4.40
2023-10-23T03:42:03.746Z,4.53
2023-10-23T03:45:07.699Z,5.10
2023-10-23T03:48:10.387Z,5.45
2023-10-23T03:51:13.160Z,5.28
2023-10-23T03:54:15.831Z,5.50
2023-10-23T03:57:18.439Z,4.60
2023-10-23T04:00:21.179Z,5.13
2023-10-23T04:03:23.961Z,5.10
2023-10-23T04:06:26.739Z,5.30
2023-10-23T04:09:32.802Z,4.97
2023-10-23T04:12:35.981Z,5.25
2023-10-23T04:15:38.736Z,5.55
2023-10-23T04:18:41.450Z,5.90
2023-10-23T04:21:44.179Z,6.07
2023-10-23T04:24:48.568Z,6.27
2023-10-23T04:27:51.320Z,6.20
2023-10-23T04:30:54.322Z,6.97
2023-10-23T04:33:57.092Z,6.13
2023-10-23T04:36:59.797Z,6.35
2023-10-23T04:40:02.584Z,5.70
2023-10-23T04:43:05.549Z,5.50
2023-10-23T04:46:08.367Z,5.95
2023-10-23T04:49:11.059Z,6.20
2023-10-23T04:52:13.680Z,7.20
2023-10-23T04:55:16.494Z,6.43
2023-10-23T04:58:19.246Z,6.78
2023-10-23T05:01:23.545Z,7.10
2023-10-23T05:04:26.415Z,7.95
2023-10-23T05:07:29.143Z,6.05
2023-10-23T05:10:32.043Z,6.33
2023-10-23T05:13:34.819Z,6.40
2023-10-23T05:16:37.641Z,5.50
2023-10-23T05:19:40.640Z,5.60
2023-10-23T05:22:43.467Z,5.60
2023-10-23T05:25:48.946Z,5.90
2023-10-23T05:28:52.921Z,5.80
2023-10-23T05:31:55.703Z,5.47
2023-10-23T05:34:58.502Z,5.95
2023-10-23T05:38:01.309Z,5.40
2023-10-23T05:41:04.338Z,5.70
2023-10-23T05:44:07.044Z,6.10
2023-10-23T05:47:09.829Z,6.35
2023-10-23T05:50:12.480Z,7.35
2023-10-23T05:53:15.188Z,6.80
2023-10-23T05:56:17.901Z,7.40
2023-10-23T05:59:20.685Z,7.40
2023-10-23T06:02:23.341Z,7.25
2023-10-23T06:05:25.951Z,7.32
2023-10-23T06:08:28.673Z,7.28
2023-10-23T06:11:32.236Z,7.50
2023-10-23T06:14:34.893Z,8.10
2023-10-23T06:17:37.731Z,7.53
2023-10-23T06:20:40.470Z,7.95
2023-10-23T06:23:43.069Z,7.60
2023-10-23T06:26:45.758Z,8.70
2023-10-23T06:29:50.561Z,8.57
2023-10-23T06:32:53.415Z,8.20
2023-10-23T06:35:59.962Z,8.05
2023-10-23T06:39:02.801Z,8.65
2023-10-23T06:42:05.797Z,10.30
2023-10-23T06:45:08.770Z,9.65
2023-10-23T06:48:11.719Z,10.48
2023-10-23T06:51:17.188Z,8.00
2023-10-23T06:54:22.779Z,8.02
2023-10-23T06:57:25.630Z,6.67
2023-10-23T07:00:28.323Z,7.95
2023-10-23T07:03:31.076Z,8.90
2023-10-23T07:06:34.934Z,9.43
2023-10-23T07:09:37.764Z,8.20
2023-10-23T07:12:40.779Z,6.80
2023-10-23T07:15:43.528Z,6.40
2023-10-23T07:18:46.818Z,6.13
2023-10-23T07:21:49.575Z,5.30
2023-10-23T07:24:55.884Z,5.72
2023-10-23T07:27:59.630Z,5.00
2023-10-23T07:31:06.541Z,5.22
2023-10-23T07:34:09.416Z,5.40
2023-10-23T07:37:19.497Z,5.20
2023-10-23T07:40:22.977Z,5.20
2023-10-23T07:43:27.121Z,4.77
2023-10-23T07:46:29.876Z,4.93
2023-10-23T07:49:32.626Z,4.70
2023-10-23T07:52:35.289Z,5.03
2023-10-23T07:55:39.001Z,7.45
2023-10-23T07:58:41.873Z,6.80
2023-10-23T08:01:44.691Z,6.63
2023-10-23T08:04:49.038Z,6.43
2023-10-23T08:07:51.931Z,6.07
2023-10-23T08:10:54.739Z,4.18
2023-10-23T08:13:57.523Z,3.83
2023-10-23T08:17:00.194Z,3.80
2023-10-23T08:20:03.056Z,4.03
2023-10-23T08:23:05.686Z,3.97
2023-10-23T08:26:08.750Z,3.28
2023-10-23T08:29:11.426Z,3.27
2023-10-23T08:32:17.307Z,3.20
2023-10-23T08:35:20.611Z,3.10
2023-10-23T08:38:23.268Z,2.75
2023-10-23T08:41:27.354Z,3.25
2023-10-23T08:44:30.438Z,2.90
2023-10-23T08:47:33.147Z,2.80
2023-10-23T08:50:37.427Z,3.03
2023-10-23T08:54:02.721Z,2.60
2023-10-23T08:57:12.910Z,2.25
2023-10-23T09:00:39.984Z,2.57
2023-10-23T09:04:02.347Z,2.40
2023-10-23T09:07:05.484Z,2.15
2023-10-23T09:10:08.616Z,2.92
2023-10-23T09:13:11.367Z,2.28
2023-10-23T09:16:14.407Z,2.30
2023-10-23T09:19:40.283Z,2.22
2023-10-23T09:22:49.901Z,2.55
2023-10-23T09:25:59.110Z,1.70
2023-10-23T09:29:01.887Z,1.83
2023-10-23T09:32:10.594Z,1.80
2023-10-23T09:35:16.082Z,1.88
2023-10-23T09:38:19.599Z,1.58
2023-10-23T09:41:22.601Z,1.67
2023-10-23T09:44:28.082Z,1.70
2023-10-23T09:47:31.081Z,1.10
2023-10-23T09:50:35.304Z,1.20
2023-10-23T09:53:39.078Z,1.30
2023-10-23T09:56:48.720Z,1.38
2023-10-23T10:00:00.952Z,1.30
2023-10-23T10:03:09.792Z,1.00
2023-10-23T10:06:15.192Z,0.77
2023-10-23T10:09:18.451Z,0.90
2023-10-23T10:12:22.456Z,1.20
2023-10-23T10:15:25.799Z,0.80
2023-10-23T10:18:30.536Z,1.00
2023-10-23T10:21:42.235Z,0.70
2023-10-23T10:24:46.506Z,0.52
2023-10-23T10:27:59.174Z,0.80
2023-10-23T10:31:01.985Z,0.75
2023-10-23T10:34:27.875Z,0.40
2023-10-23T10:37:32.915Z,0.60
2023-10-23T10:41:02.768Z,0.88
2023-10-23T10:44:11.391Z,0.43
2023-10-23T10:47:17.003Z,0.60
2023-10-23T10:50:42.429Z,0.60
2023-10-23T10:53:47.816Z,0.60
2023-10-23T10:56:52.779Z,0.70
2023-10-23T10:59:56.733Z,0.98
2023-10-23T11:03:00.082Z,0.47
2023-10-23T11:06:02.818Z,0.63
2023-10-23T11:09:07.842Z,0.60
2023-10-23T11:12:10.517Z,0.70
2023-10-23T11:15:14.854Z,0.40
2023-10-23T11:18:18.038Z,0.80
2023-10-23T11:21:24.578Z,0.50
2023-10-23T11:24:27.344Z,0.93
2023-10-23T11:27:29.993Z,0.38
2023-10-23T11:30:32.910Z,0.90
2023-10-23T11:33:37.329Z,2.10
2023-10-23T11:36:40.482Z,1.57
2023-10-23T11:39:43.762Z,1.83
2023-10-23T11:42:57.512Z,0.50
2023-10-23T11:46:00.538Z,1.30
2023-10-23T11:49:03.895Z,0.52
2023-10-23T11:52:06.883Z,0.50
2023-10-23T11:55:12.090Z,0.40
2023-10-23T11:58:14.814Z,0.50
2023-10-23T12:01:17.521Z,0.73
2023-10-23T12:04:20.383Z,0.90
2023-10-23T12:07:23.085Z,0.80
2023-10-23T12:10:27.703Z,0.80
2023-10-23T12:13:30.525Z,1.00
2023-10-23T12:16:33.769Z,0.70
2023-10-23T12:19:36.870Z,0.70
2023-10-23T12:22:44.073Z,0.77
2023-10-23T12:25:46.753Z,0.80
2023-10-23T12:28:49.387Z,0.70
2023-10-23T12:32:01.721Z,0.88
2023-10-23T12:35:05.700Z,0.70
2023-10-23T12:38:08.599Z,0.60
2023-10-23T12:41:11.302Z,0.77
2023-10-23T12:44:14.027Z,1.00
2023-10-23T12:47:17.365Z,0.60
2023-10-23T12:50:20.427Z,0.88
2023-10-23T12:53:23.611Z,0.67
2023-10-23T12:56:26.849Z,0.60
2023-10-23T12:59:34.599Z,0.68
2023-10-23T13:02:38.058Z,0.68
2023-10-23T13:05:40.807Z,0.70
2023-10-23T13:08:44.501Z,0.60
2023-10-23T13:11:47.665Z,0.65
2023-10-23T13:14:50.525Z,0.30
2023-10-23T13:17:57.406Z,0.60
2023-10-23T13:21:32.049Z,0.30
2023-10-23T13:24:23.080Z,1.03
2023-10-23T13:27:25.859Z,0.60
2023-10-23T13:30:28.562Z,0.60
2023-10-23T13:33:31.227Z,0.55
2023-10-23T13:36:33.903Z,0.70
2023-10-23T13:39:36.618Z,0.70
2023-10-23T13:42:39.259Z,0.82
2023-10-23T13:45:41.962Z,0.82
2023-10-23T13:49:04.380Z,1.27
2023-10-23T13:52:10.882Z,1.08
2023-10-23T13:55:13.623Z,4.47
2023-10-23T13:58:16.530Z,3.67
2023-10-23T14:01:19.678Z,2.08
2023-10-23T14:04:22.643Z,1.17
2023-10-23T14:07:25.505Z,2.25
2023-10-23T14:10:29.603Z,1.10
2023-10-23T14:13:32.315Z,0.70
2023-10-23T14:16:35.108Z,1.08
2023-10-23T14:19:46.813Z,0.70
2023-10-23T14:22:50.837Z,0.80
2023-10-23T14:25:53.428Z,0.50
2023-10-23T14:29:09.257Z,0.85
2023-10-23T14:32:12.444Z,0.90
2023-10-23T14:35:15.379Z,1.63
2023-10-23T14:38:24.878Z,0.70
2023-10-23T14:41:27.677Z,2.40
2023-10-23T14:44:30.993Z,3.30
2023-10-23T14:47:33.945Z,4.15
2023-10-23T14:50:39.467Z,6.45
2023-10-23T14:53:42.075Z,6.85
2023-10-23T14:56:45.886Z,4.07
2023-10-23T14:59:48.547Z,2.90
2023-10-23T15:02:51.178Z,5.22
2023-10-23T15:05:54.559Z,4.55
2023-10-23T15:08:59.107Z,6.75
2023-10-23T15:12:01.798Z,5.13
2023-10-23T15:15:04.886Z,3.00
2023-10-23T15:18:17.135Z,2.50
2023-10-23T15:21:19.975Z,1.80
2023-10-23T15:24:22.997Z,0.80
2023-10-23T15:27:25.641Z,1.00
2023-10-23T15:30:28.334Z,1.30
2023-10-23T15:33:32.145Z,1.88
2023-10-23T15:36:35.116Z,1.55
2023-10-23T15:39:41.891Z,1.30
2023-10-23T15:42:44.534Z,0.97
2023-10-23T15:45:51.220Z,5.03
2023-10-23T15:48:54.248Z,12.73
2023-10-23T15:51:57.383Z,8.05
2023-10-23T15:55:00.044Z,8.07
2023-10-23T15:58:04.694Z,7.73
2023-10-23T16:01:08.307Z,8.60
2023-10-23T16:04:12.424Z,8.68
2023-10-23T16:07:15.082Z,9.38
2023-10-23T16:10:17.849Z,10.30
2023-10-23T16:13:20.699Z,7.50
2023-10-23T16:16:23.449Z,6.35
2023-10-23T16:19:26.476Z,7.03
2023-10-23T16:22:29.272Z,3.15
2023-10-23T16:25:35.071Z,4.78
2023-10-23T16:28:37.919Z,3.73
2023-10-23T16:31:40.769Z,2.47
2023-10-23T16:34:43.801Z,3.10
2023-10-23T16:37:46.884Z,3.20
2023-10-23T16:40:49.590Z,4.70
2023-10-23T16:43:52.222Z,3.30
2023-10-23T16:46:55.242Z,5.10
2023-10-23T16:49:58.007Z,5.50
2023-10-23T16:53:02.960Z,5.10
2023-10-23T16:56:09.281Z,5.55
2023-10-23T16:59:13.612Z,6.13
2023-10-23T17:02:16.407Z,6.38
2023-10-23T17:05:19.206Z,5.35
2023-10-23T17:08:21.859Z,5.20
2023-10-23T17:11:24.534Z,5.40
2023-10-23T17:14:27.334Z,4.77
2023-10-23T17:17:31.721Z,4.93
2023-10-23T17:20:39.859Z,4.60
2023-10-23T17:23:42.605Z,2.35
2023-10-23T17:26:45.516Z,2.55
2023-10-23T17:29:48.233Z,1.97
2023-10-23T17:32:51.717Z,2.90
2023-10-23T17:35:55.444Z,1.77
2023-10-23T17:38:59.146Z,2.20
2023-10-23T17:42:03.164Z,2.60
2023-10-23T17:45:06.727Z,3.77
2023-10-23T17:48:09.659Z,3.90
2023-10-23T17:51:16.717Z,5.72
2023-10-23T17:54:20.426Z,8.48
2023-10-23T17:57:27.390Z,6.32
2023-10-23T18:00:30.346Z,11.70
2023-10-23T18:03:33.304Z,9.23
2023-10-23T18:06:36.134Z,11.15
2023-10-23T18:09:40.226Z,9.77
2023-10-23T18:12:43.193Z,9.93
2023-10-23T18:15:45.991Z,12.83
2023-10-23T18:18:48.624Z,18.05
2023-10-23T18:21:51.602Z,19.45
2023-10-23T18:24:56.100Z,20.05
2023-10-23T18:27:59.255Z,22.38
2023-10-23T18:31:02.028Z,18.63
2023-10-23T18:34:05.142Z,13.00
2023-10-23T18:37:08.169Z,13.00
2023-10-23T18:40:11.297Z,10.48
2023-10-23T18:43:14.138Z,9.13
2023-10-23T18:46:17.262Z,9.53
2023-10-23T18:49:20.560Z,11.80
2023-10-23T18:52:23.602Z,12.38
2023-10-23T18:55:26.356Z,18.17
2023-10-23T18:58:29.268Z,11.30
2023-10-23T19:01:31.981Z,11.03
2023-10-23T19:04:34.763Z,10.30
2023-10-23T19:07:37.535Z,10.07
2023-10-23T19:10:40.677Z,13.73
2023-10-23T19:13:43.437Z,11.52
2023-10-23T19:16:46.583Z,11.03
2023-10-23T19:19:49.281Z,12.10
2023-10-23T19:22:52.127Z,11.13
2023-10-23T19:25:55.348Z,9.40
2023-10-23T19:28:58.080Z,9.70
2023-10-23T19:32:01.072Z,10.80
2023-10-23T19:35:04.103Z,11.07
2023-10-23T19:38:07.298Z,9.50
2023-10-23T19:41:17.751Z,10.70
2023-10-23T19:44:21.104Z,10.80
2023-10-23T19:47:24.297Z,8.83
2023-10-23T19:50:27.987Z,9.10
2023-10-23T19:53:30.901Z,9.23
2023-10-23T19:56:44.671Z,7.75
2023-10-23T19:59:47.478Z,7.88
2023-10-23T20:02:51.749Z,9.70
2023-10-23T20:05:56.090Z,10.55
2023-10-23T20:08:58.998Z,10.30
2023-10-23T20:12:01.674Z,9.90
2023-10-23T20:15:05.582Z,9.90
2023-10-23T20:18:11.396Z,9.57
2023-10-23T20:21:15.423Z,9.15
2023-10-23T20:24:18.190Z,8.45
2023-10-23T20:27:21.044Z,8.13
2023-10-23T20:30:23.811Z,7.72
2023-10-23T20:33:26.610Z,7.83
2023-10-23T20:36:29.253Z,7.90
2023-10-23T20:39:31.878Z,7.68
2023-10-23T20:42:35.593Z,8.43
2023-10-23T20:45:39.076Z,8.85
2023-10-23T20:48:41.784Z,8.73
2023-10-23T20:51:44.534Z,8.55
2023-10-23T20:54:47.314Z,8.80
2023-10-23T20:57:49.979Z,8.02
2023-10-23T21:00:52.719Z,7.88
2023-10-23T21:03:55.891Z,8.13
2023-10-23T21:06:58.540Z,8.20
2023-10-23T21:10:01.307Z,8.88
2023-10-23T21:13:04.105Z,8.45
2023-10-23T21:16:08.183Z,8.80
2023-10-23T21:19:10.900Z,8.53
2023-10-23T21:22:13.607Z,8.75
2023-10-23T21:25:16.870Z,8.18
2023-10-23T21:28:27.009Z,8.07
2023-10-23T21:31:29.911Z,8.95
2023-10-23T21:34:32.640Z,7.97
2023-10-23T21:37:35.421Z,8.20
2023-10-23T21:40:38.155Z,8.60
2023-10-23T21:43:40.998Z,8.20
2023-10-23T21:46:43.892Z,8.23
2023-10-23T21:49:47.182Z,8.17
2023-10-23T21:52:50.249Z,8.00
2023-10-23T21:55:53.102Z,7.38
2023-10-23T21:59:02.694Z,7.90
2023-10-23T22:02:13.462Z,8.30
2023-10-23T22:05:16.304Z,8.47
2023-10-23T22:08:19.286Z,7.60
2023-10-23T22:11:22.242Z,8.30
2023-10-23T22:14:25.199Z,8.07
2023-10-23T22:17:27.939Z,7.75
2023-10-23T22:20:30.767Z,8.03
2023-10-23T22:23:33.491Z,10.40
2023-10-23T22:26:36.206Z,11.00
2023-10-23T22:29:38.938Z,10.48
2023-10-23T22:32:41.808Z,10.63
2023-10-23T22:35:44.555Z,9.93
2023-10-23T22:38:47.246Z,10.10
2023-10-23T22:41:50.034Z,9.75
2023-10-23T22:44:52.832Z,9.82
2023-10-23T22:47:55.476Z,10.23
2023-10-23T22:50:58.785Z,9.57
2023-10-23T22:54:01.573Z,9.63
2023-10-23T22:57:06.347Z,10.45
2023-10-23T23:00:11.437Z,10.75
2023-10-23T23:03:14.443Z,10.68
2023-10-23T23:06:20.308Z,10.20
2023-10-23T23:09:23.340Z,10.02
2023-10-23T23:12:26.322Z,10.23
2023-10-23T23:15:29.537Z,10.02
2023-10-23T23:18:33.802Z,10.30
2023-10-23T23:21:42.813Z,9.53
2023-10-23T23:24:45.445Z,9.82
2023-10-23T23:27:48.047Z,9.55
2023-10-23T23:30:50.802Z,9.48
2023-10-23T23:33:53.616Z,8.93
2023-10-23T23:36:56.843Z,9.37
2023-10-23T23:39:59.459Z,10.50
2023-10-23T23:43:02.085Z,11.52
2023-10-23T23:46:04.948Z,12.07
2023-10-23T23:49:07.783Z,12.75
2023-10-23T23:52:10.582Z,11.40
2023-10-23T23:55:13.680Z,11.43
2023-10-23T23:58:16.476Z,11.57
